Crystal Falls, MI (49920)

5:39 PM CDT on August 24, 2016 (GMT -0500)
Bates Tower | | Change Station

Elev 1765 ft 46.10 °N, 88.54 °W | Updated 12 minutes ago

Overcast
Overcast
73.8 °F
Feels Like 74 °F
N
5.0
Wind Variable Wind from WSW
Gusts 12.0 mph

Today
High -- | Low -- °F
--% Chance of Precip.
Yesterday
High -- | Low -- °F
Precip. -- in
Pressure 29.83 in
Visibility 10.0 miles
Clouds Overcast 5500 ft
Heat Index 74 °F
Dew Point 68 °F
Humidity 82%
Rainfall 0.30 in
Snow Depth Not available.
6:04 AM 7:45 PM
Waning Gibbous, 52% visible
METAR KIMT 242154Z AUTO 26010KT 10SM OVC055 24/19 A2984 RMK AO2 SLP099 T02390189
Pressure 29.83 in
Visibility 10.0 miles
Clouds Overcast 5500 ft
Heat Index 74 °F
Dew Point 68 °F
Humidity 82%
Rainfall 0.30 in
Snow Depth Not available.
6:04 AM 7:45 PM
Waning Gibbous, 52% visible
METAR KIMT 242154Z AUTO 26010KT 10SM OVC055 24/19 A2984 RMK AO2 SLP099 T02390189

10-Day Weather Forecast

Almanac

Astronomy

Aug. 24, 2016 Rise Set
Actual Time
Civil Twilight
Nautical Twilight
Astronomical Twilight
Moon
Length of Visible Light
Length of Day
Tomorrow will be .
, % of the Moon is Illuminated

Today's Extremes

State Highs State Lows

Community

WunderPhotos

Upload Photos

1,934,728 photos uploaded!

WunderBlog® & News

Nearby

Air Quality

  Air Quality AQ Index Pollutant
Not available.

Snow Depth

Station Depth Elevation

Earthquake Activity

City Distance Mag. Time & Date
Minimum magnitude displayed is 2.5.

Coastal Water Temperatures

Place Temperature

Stations

Nearby Weather Stations

Station Location Temp. Windchill Dew Point Humidity Wind Precip. Elev Updated Type
                   

Watches & Warnings

There are currently no watches in effect.